createdAt,value
2018-09-22T00:00:06.235Z,858.24
2018-09-22T00:01:06.110Z,858.31
2018-09-22T00:02:05.989Z,858.32
2018-09-22T00:03:05.864Z,858.39
2018-09-22T00:04:05.740Z,858.42
2018-09-22T00:05:05.617Z,858.42
2018-09-22T00:06:05.494Z,858.42
2018-09-22T00:07:05.369Z,858.41
2018-09-22T00:08:05.244Z,858.41
2018-09-22T00:09:05.120Z,858.36
2018-09-22T00:10:04.999Z,858.36
2018-09-22T00:11:04.872Z,858.37
2018-09-22T00:12:04.748Z,858.36
2018-09-22T00:13:04.627Z,858.37
2018-09-22T00:14:04.522Z,858.40
2018-09-22T00:15:04.376Z,858.45
2018-09-22T00:16:04.253Z,858.50
2018-09-22T00:17:04.131Z,858.47
2018-09-22T00:18:04.006Z,858.46
2018-09-22T00:19:03.883Z,858.49
2018-09-22T00:20:03.760Z,858.52
2018-09-22T00:21:03.635Z,858.53
2018-09-22T00:22:03.512Z,858.56
2018-09-22T00:23:03.387Z,858.57
2018-09-22T00:24:03.264Z,858.60
2018-09-22T00:25:03.140Z,858.62
2018-09-22T00:26:03.017Z,858.64
2018-09-22T00:27:02.892Z,858.62
2018-09-22T00:28:02.765Z,858.63
2018-09-22T00:29:02.645Z,858.63
2018-09-22T00:30:02.525Z,858.66
2018-09-22T00:31:02.395Z,858.67
2018-09-22T00:32:02.275Z,858.64
2018-09-22T00:33:02.147Z,858.61
2018-09-22T00:34:02.022Z,858.58
2018-09-22T00:35:01.898Z,858.59
2018-09-22T00:36:01.776Z,858.56
2018-09-22T00:37:01.650Z,858.61
2018-09-22T00:38:01.527Z,858.60
2018-09-22T00:39:01.402Z,858.61
2018-09-22T00:40:01.278Z,858.58
2018-09-22T00:41:01.156Z,858.54
2018-09-22T00:42:01.031Z,858.53
2018-09-22T00:43:00.906Z,858.50
2018-09-22T00:44:00.783Z,858.49
2018-09-22T00:45:00.659Z,858.48
2018-09-22T00:46:00.531Z,858.47
2018-09-22T00:47:00.406Z,858.48
2018-09-22T00:48:00.283Z,858.51
2018-09-22T00:49:00.161Z,858.45
2018-09-22T00:50:00.037Z,858.43
2018-09-22T00:50:59.911Z,858.43
2018-09-22T00:51:59.790Z,858.41
2018-09-22T00:52:59.663Z,858.45
2018-09-22T00:53:59.539Z,858.49
2018-09-22T00:54:59.415Z,858.47
2018-09-22T00:55:59.295Z,858.45
2018-09-22T00:56:59.164Z,858.43
2018-09-22T00:57:59.048Z,858.45
2018-09-22T00:58:58.917Z,858.46
2018-09-22T00:59:58.793Z,858.49
2018-09-22T01:00:58.669Z,858.48
2018-09-22T01:01:58.545Z,858.45
2018-09-22T01:02:58.418Z,858.50
2018-09-22T01:03:58.296Z,858.54
2018-09-22T01:04:58.171Z,858.60
2018-09-22T01:05:58.046Z,858.60
2018-09-22T01:06:57.923Z,858.68
2018-09-22T01:07:57.806Z,858.70
2018-09-22T01:08:57.675Z,858.76
2018-09-22T01:09:57.550Z,858.76
2018-09-22T01:10:57.422Z,858.78
2018-09-22T01:11:57.301Z,858.76
2018-09-22T01:12:57.175Z,858.63
2018-09-22T01:13:57.050Z,858.58
2018-09-22T01:14:56.928Z,858.60
2018-09-22T01:15:56.856Z,858.61
2018-09-22T01:16:56.676Z,858.61
2018-09-22T01:17:56.551Z,858.61
2018-09-22T01:18:56.427Z,858.61
2018-09-22T01:19:56.303Z,858.62
2018-09-22T01:20:56.176Z,858.66
2018-09-22T01:21:56.052Z,858.63
2018-09-22T01:22:55.933Z,858.62
2018-09-22T01:23:55.804Z,858.63
2018-09-22T01:24:55.681Z,858.66
2018-09-22T01:25:55.551Z,858.64
2018-09-22T01:26:55.428Z,858.70
2018-09-22T01:27:55.301Z,858.65
2018-09-22T01:28:55.179Z,858.66
2018-09-22T01:29:55.054Z,858.66
2018-09-22T01:30:54.929Z,858.66
2018-09-22T01:31:54.804Z,858.66
2018-09-22T01:32:54.682Z,858.71
2018-09-22T01:33:54.556Z,858.70
2018-09-22T01:34:54.430Z,858.73
2018-09-22T01:35:54.305Z,858.79
2018-09-22T01:36:54.182Z,858.83
2018-09-22T01:37:54.059Z,858.85
2018-09-22T01:38:53.933Z,858.83
2018-09-22T01:39:53.806Z,858.83
2018-09-22T01:40:53.684Z,858.84
2018-09-22T01:41:53.557Z,858.82
2018-09-22T01:42:53.433Z,858.85
2018-09-22T01:43:53.309Z,858.87
2018-09-22T01:44:53.181Z,858.89
2018-09-22T01:45:53.057Z,858.93
2018-09-22T01:46:52.935Z,858.91
2018-09-22T01:47:52.808Z,859.01
2018-09-22T01:48:52.684Z,858.97
2018-09-22T01:49:52.559Z,858.96
2018-09-22T01:50:52.433Z,858.94
2018-09-22T01:51:52.312Z,858.94
2018-09-22T01:52:52.188Z,858.91
2018-09-22T01:53:52.061Z,858.90
2018-09-22T01:54:51.934Z,858.90
2018-09-22T01:55:51.815Z,858.89
2018-09-22T01:56:51.686Z,858.87
2018-09-22T01:57:51.560Z,858.81
2018-09-22T01:58:51.434Z,858.84
2018-09-22T01:59:51.309Z,858.83
2018-09-22T02:00:51.186Z,858.82
2018-09-22T02:01:51.062Z,858.77
2018-09-22T02:02:50.936Z,858.78
2018-09-22T02:03:50.812Z,858.81
2018-09-22T02:04:50.689Z,858.85
2018-09-22T02:05:50.561Z,858.82
2018-09-22T02:06:50.437Z,858.83
2018-09-22T02:07:50.310Z,858.82
2018-09-22T02:08:50.187Z,858.83
2018-09-22T02:09:50.062Z,858.77
2018-09-22T02:10:49.938Z,858.76
2018-09-22T02:11:49.811Z,858.77
2018-09-22T02:12:49.686Z,858.71
2018-09-22T02:13:49.562Z,858.74
2018-09-22T02:14:49.436Z,858.75
2018-09-22T02:15:49.311Z,858.70
2018-09-22T02:16:49.184Z,858.76
2018-09-22T02:17:49.063Z,858.75
2018-09-22T02:18:48.936Z,858.75
2018-09-22T02:19:48.809Z,858.73
2018-09-22T02:20:48.685Z,858.70
2018-09-22T02:21:48.560Z,858.67
2018-09-22T02:22:48.436Z,858.64
2018-09-22T02:23:48.312Z,858.65
2018-09-22T02:24:48.192Z,858.68
2018-09-22T02:25:48.063Z,858.73
2018-09-22T02:26:47.932Z,858.78
2018-09-22T02:27:47.809Z,858.80
2018-09-22T02:28:47.682Z,858.79
2018-09-22T02:29:47.558Z,858.81
2018-09-22T02:30:47.436Z,858.81
2018-09-22T02:31:47.307Z,858.80
2018-09-22T02:32:47.187Z,858.87
2018-09-22T02:33:47.055Z,858.89
2018-09-22T02:34:46.934Z,858.88
2018-09-22T02:35:46.809Z,858.88
2018-09-22T02:36:46.679Z,858.92
2018-09-22T02:37:46.560Z,858.88
2018-09-22T02:38:46.430Z,858.93
2018-09-22T02:39:46.300Z,858.89
2018-09-22T02:40:46.177Z,858.96
2018-09-22T02:41:46.052Z,858.97
2018-09-22T02:42:45.926Z,858.99
2018-09-22T02:43:45.808Z,858.99
2018-09-22T02:44:45.675Z,859.00
2018-09-22T02:45:45.548Z,859.00
2018-09-22T02:46:45.423Z,859.02
2018-09-22T02:47:45.297Z,859.09
2018-09-22T02:48:45.172Z,859.13
2018-09-22T02:49:45.046Z,859.16
2018-09-22T02:50:44.920Z,859.13
2018-09-22T02:51:44.797Z,859.14
2018-09-22T02:52:44.669Z,859.16
2018-09-22T02:53:44.546Z,859.18
2018-09-22T02:54:44.417Z,859.14
2018-09-22T02:55:44.293Z,859.13
2018-09-22T02:56:44.165Z,859.14
2018-09-22T02:57:44.042Z,859.12
2018-09-22T02:58:43.914Z,859.13
2018-09-22T02:59:43.790Z,859.09
2018-09-22T03:00:43.662Z,859.11
2018-09-22T03:01:43.536Z,859.13
2018-09-22T03:02:43.409Z,859.13
2018-09-22T03:03:43.285Z,859.18
2018-09-22T03:04:43.164Z,859.18
2018-09-22T03:05:43.051Z,859.16
2018-09-22T03:06:42.921Z,859.17
2018-09-22T03:07:42.781Z,859.17
2018-09-22T03:08:42.700Z,859.19
2018-09-22T03:09:42.531Z,859.15
2018-09-22T03:10:42.406Z,859.17
2018-09-22T03:11:42.278Z,859.16
2018-09-22T03:12:42.155Z,859.20
2018-09-22T03:13:42.025Z,859.22
2018-09-22T03:14:41.946Z,859.26
2018-09-22T03:15:41.773Z,859.27
2018-09-22T03:16:41.651Z,859.28
2018-09-22T03:17:41.529Z,859.26
2018-09-22T03:18:41.397Z,859.21
2018-09-22T03:19:41.271Z,859.20
2018-09-22T03:20:41.144Z,859.16
2018-09-22T03:21:41.019Z,859.18
2018-09-22T03:22:40.892Z,859.16
2018-09-22T03:23:40.768Z,859.15
2018-09-22T03:24:40.642Z,859.17
2018-09-22T03:25:40.515Z,859.18
2018-09-22T03:26:40.388Z,859.22
2018-09-22T03:27:40.261Z,859.24
2018-09-22T03:28:40.135Z,859.27
2018-09-22T03:29:40.010Z,859.33
2018-09-22T03:30:39.881Z,859.32
2018-09-22T03:31:39.756Z,859.32
2018-09-22T03:32:39.628Z,859.36
2018-09-22T03:33:39.503Z,859.36
2018-09-22T03:34:39.375Z,859.44
2018-09-22T03:35:39.249Z,859.45
2018-09-22T03:36:39.123Z,859.45
2018-09-22T03:37:38.999Z,859.50
2018-09-22T03:38:38.870Z,859.57
2018-09-22T03:39:38.744Z,859.61
2018-09-22T03:40:38.618Z,859.64
2018-09-22T03:41:38.491Z,859.59
2018-09-22T03:42:38.365Z,859.61
2018-09-22T03:43:38.241Z,859.65
2018-09-22T03:44:38.114Z,859.69
2018-09-22T03:45:37.988Z,859.71
2018-09-22T03:46:37.859Z,859.68
2018-09-22T03:47:37.737Z,859.73
2018-09-22T03:48:37.606Z,859.76
2018-09-22T03:49:37.486Z,859.82
2018-09-22T03:50:37.356Z,859.84
2018-09-22T03:51:37.233Z,859.88
2018-09-22T03:52:37.102Z,859.89
2018-09-22T03:53:36.977Z,859.92
2018-09-22T03:54:36.853Z,859.98
2018-09-22T03:55:36.727Z,859.96
2018-09-22T03:56:36.597Z,859.96
2018-09-22T03:57:36.471Z,859.93
2018-09-22T03:58:36.344Z,859.95
2018-09-22T03:59:36.220Z,859.97
2018-09-22T04:00:36.091Z,859.94
2018-09-22T04:01:35.968Z,859.92
2018-09-22T04:02:35.839Z,859.92
2018-09-22T04:03:35.711Z,859.94
2018-09-22T04:04:35.584Z,859.93
2018-09-22T04:05:35.458Z,859.92
2018-09-22T04:06:35.334Z,859.85
2018-09-22T04:07:35.205Z,859.76
2018-09-22T04:08:35.078Z,859.77
2018-09-22T04:09:34.952Z,859.69
2018-09-22T04:10:34.827Z,859.71
2018-09-22T04:11:34.700Z,859.70
2018-09-22T04:12:34.574Z,859.68
2018-09-22T04:13:34.447Z,859.67
2018-09-22T04:14:34.318Z,859.62
2018-09-22T04:15:34.190Z,859.56
2018-09-22T04:16:34.063Z,859.44
2018-09-22T04:17:33.939Z,859.45
2018-09-22T04:18:33.809Z,859.41
2018-09-22T04:19:33.686Z,859.40
2018-09-22T04:20:33.556Z,859.45
2018-09-22T04:21:33.429Z,859.48
2018-09-22T04:22:33.304Z,859.56
2018-09-22T04:23:33.174Z,859.55
2018-09-22T04:24:33.049Z,859.55
2018-09-22T04:25:32.923Z,859.59
2018-09-22T04:26:32.795Z,859.67
2018-09-22T04:27:32.668Z,859.67
2018-09-22T04:28:32.542Z,859.76
2018-09-22T04:29:32.415Z,859.80
2018-09-22T04:30:32.300Z,859.83
2018-09-22T04:31:32.160Z,859.84
2018-09-22T04:32:32.034Z,859.86
2018-09-22T04:33:31.920Z,859.88
2018-09-22T04:34:31.782Z,859.86
2018-09-22T04:35:31.658Z,859.84
2018-09-22T04:36:31.526Z,859.84
2018-09-22T04:37:31.398Z,859.81
2018-09-22T04:38:31.274Z,859.77
2018-09-22T04:39:31.152Z,859.79
2018-09-22T04:40:31.019Z,859.84
2018-09-22T04:41:30.893Z,859.85
2018-09-22T04:42:30.771Z,859.90
2018-09-22T04:43:30.637Z,859.94
2018-09-22T04:44:30.512Z,860.02
2018-09-22T04:45:30.387Z,860.05
2018-09-22T04:46:30.257Z,860.00
2018-09-22T04:47:30.131Z,859.98
2018-09-22T04:48:30.006Z,859.89
2018-09-22T04:49:29.878Z,859.86
2018-09-22T04:50:29.751Z,859.77
2018-09-22T04:51:29.624Z,859.75
2018-09-22T04:52:29.501Z,859.74
2018-09-22T04:53:29.403Z,859.83
2018-09-22T04:54:29.276Z,859.90
2018-09-22T04:55:29.318Z,859.97
2018-09-22T04:56:28.994Z,859.97
2018-09-22T04:57:28.866Z,859.94
2018-09-22T04:58:28.735Z,859.94
2018-09-22T04:59:28.610Z,859.96
2018-09-22T05:00:28.485Z,860.01
2018-09-22T05:01:28.357Z,860.01
2018-09-22T05:02:28.230Z,860.04
2018-09-22T05:03:28.103Z,860.04
2018-09-22T05:04:27.976Z,860.04
2018-09-22T05:05:27.849Z,860.03
2018-09-22T05:06:27.721Z,860.07
2018-09-22T05:07:27.593Z,860.03
2018-09-22T05:08:27.465Z,860.04
2018-09-22T05:09:27.345Z,860.05
2018-09-22T05:10:27.212Z,860.02
2018-09-22T05:11:27.136Z,860.10
2018-09-22T05:12:26.958Z,860.15
2018-09-22T05:13:26.832Z,860.20
2018-09-22T05:14:26.702Z,860.21
2018-09-22T05:15:26.582Z,860.27
2018-09-22T05:16:26.452Z,860.34
2018-09-22T05:17:26.345Z,860.34
2018-09-22T05:18:26.194Z,860.37
2018-09-22T05:19:26.066Z,860.40
2018-09-22T05:20:25.982Z,860.44
2018-09-22T05:21:25.815Z,860.51
2018-09-22T05:22:25.685Z,860.52
2018-09-22T05:23:25.558Z,860.48
2018-09-22T05:24:25.443Z,860.51
2018-09-22T05:25:25.306Z,860.53
2018-09-22T05:26:25.176Z,860.56
2018-09-22T05:27:25.144Z,860.55
2018-09-22T05:28:24.923Z,860.53
2018-09-22T05:29:24.797Z,860.47
2018-09-22T05:30:24.666Z,860.47
2018-09-22T05:31:24.631Z,860.46
2018-09-22T05:32:24.551Z,860.47
2018-09-22T05:33:24.290Z,860.46
2018-09-22T05:34:24.157Z,860.50
2018-09-22T05:35:24.038Z,860.52
2018-09-22T05:36:23.906Z,860.58
2018-09-22T05:37:23.777Z,860.59
2018-09-22T05:38:23.649Z,860.61
2018-09-22T05:39:23.528Z,860.64
2018-09-22T05:40:23.415Z,860.65
2018-09-22T05:41:23.266Z,860.64
2018-09-22T05:42:23.142Z,860.66
2018-09-22T05:43:23.055Z,860.70
2018-09-22T05:44:22.899Z,860.71
2018-09-22T05:45:22.757Z,860.75
2018-09-22T05:46:22.630Z,860.75
2018-09-22T05:47:22.505Z,860.82
2018-09-22T05:48:22.551Z,860.79
2018-09-22T05:49:22.256Z,860.80
2018-09-22T05:50:22.404Z,860.82
2018-09-22T05:51:21.994Z,860.84
2018-09-22T05:52:22.202Z,860.83
2018-09-22T05:53:21.742Z,860.89
2018-09-22T05:54:21.610Z,860.90
2018-09-22T05:55:21.484Z,860.91
2018-09-22T05:56:21.356Z,860.94
2018-09-22T05:57:21.230Z,860.92
2018-09-22T05:58:21.101Z,860.89
2018-09-22T05:59:20.980Z,860.91
2018-09-22T06:00:20.849Z,860.87
2018-09-22T06:01:20.721Z,860.91
2018-09-22T06:02:20.592Z,860.93
2018-09-22T06:03:20.483Z,860.96
2018-09-22T06:04:20.336Z,860.95
2018-09-22T06:05:20.210Z,860.91
2018-09-22T06:06:20.081Z,860.93
2018-09-22T06:07:19.955Z,860.96
2018-09-22T06:08:19.827Z,861.00
2018-09-22T06:09:19.699Z,861.00
2018-09-22T06:10:19.573Z,861.02
2018-09-22T06:11:19.446Z,861.04
2018-09-22T06:12:19.318Z,861.01
2018-09-22T06:13:19.190Z,861.02
2018-09-22T06:14:19.069Z,861.01
2018-09-22T06:15:18.936Z,861.01
2018-09-22T06:16:18.809Z,860.99
2018-09-22T06:17:18.682Z,860.99
2018-09-22T06:18:18.558Z,860.99
2018-09-22T06:19:18.426Z,861.01
2018-09-22T06:20:18.299Z,861.00
2018-09-22T06:21:18.181Z,861.00
2018-09-22T06:22:18.046Z,860.99
2018-09-22T06:23:17.968Z,861.01
2018-09-22T06:24:17.804Z,860.98
2018-09-22T06:25:17.669Z,861.03
2018-09-22T06:26:17.535Z,861.03
2018-09-22T06:27:17.407Z,861.03
2018-09-22T06:28:17.282Z,861.03
2018-09-22T06:29:17.155Z,860.99
2018-09-22T06:30:17.028Z,860.95
2018-09-22T06:31:16.957Z,860.91
2018-09-22T06:32:16.773Z,860.89
2018-09-22T06:33:16.645Z,860.87
2018-09-22T06:34:16.518Z,860.89
2018-09-22T06:35:16.389Z,860.92
2018-09-22T06:36:16.264Z,860.94
2018-09-22T06:37:16.164Z,860.90
2018-09-22T06:38:16.008Z,860.86
2018-09-22T06:39:15.881Z,860.83
2018-09-22T06:40:15.754Z,860.82
2018-09-22T06:41:15.632Z,860.82
2018-09-22T06:42:15.500Z,860.88
2018-09-22T06:43:15.376Z,860.90
2018-09-22T06:44:15.299Z,860.93
2018-09-22T06:45:15.137Z,860.98
2018-09-22T06:46:15.047Z,861.00
2018-09-22T06:47:14.862Z,860.97
2018-09-22T06:48:14.737Z,861.00
2018-09-22T06:49:14.609Z,860.96
2018-09-22T06:50:14.487Z,860.90
2018-09-22T06:51:14.353Z,860.88
2018-09-22T06:52:14.226Z,860.85
2018-09-22T06:53:14.101Z,860.81
2018-09-22T06:54:13.972Z,860.81
2018-09-22T06:55:13.845Z,860.84
2018-09-22T06:56:13.719Z,860.84
2018-09-22T06:57:13.593Z,860.87
2018-09-22T06:58:13.462Z,860.90
2018-09-22T06:59:13.335Z,860.93
2018-09-22T07:00:13.212Z,860.96
2018-09-22T07:01:13.084Z,860.93
2018-09-22T07:02:12.955Z,860.92
2018-09-22T07:03:12.828Z,860.90
2018-09-22T07:04:12.701Z,860.89
2018-09-22T07:05:12.574Z,860.93
2018-09-22T07:06:12.447Z,860.96
2018-09-22T07:07:12.326Z,860.96
2018-09-22T07:08:12.194Z,860.95
2018-09-22T07:09:12.065Z,860.98
2018-09-22T07:10:11.937Z,860.98
2018-09-22T07:11:11.811Z,860.95
2018-09-22T07:12:11.681Z,860.95
2018-09-22T07:13:11.556Z,860.99
2018-09-22T07:14:11.427Z,860.99
2018-09-22T07:15:11.300Z,861.00
2018-09-22T07:16:11.173Z,860.98
2018-09-22T07:17:11.047Z,861.07
2018-09-22T07:18:10.918Z,861.06
2018-09-22T07:19:10.794Z,861.06
2018-09-22T07:20:10.663Z,861.08
2018-09-22T07:21:10.536Z,861.09
2018-09-22T07:22:10.408Z,861.09
2018-09-22T07:23:10.288Z,861.10
2018-09-22T07:24:10.154Z,861.07
2018-09-22T07:25:10.026Z,861.10
2018-09-22T07:26:09.898Z,861.11
2018-09-22T07:27:09.771Z,861.14
2018-09-22T07:28:09.645Z,861.20
2018-09-22T07:29:09.517Z,861.17
2018-09-22T07:30:09.390Z,861.19
2018-09-22T07:31:09.268Z,861.15
2018-09-22T07:32:09.139Z,861.15
2018-09-22T07:33:09.009Z,861.17
2018-09-22T07:34:08.895Z,861.19
2018-09-22T07:35:08.755Z,861.20
2018-09-22T07:36:08.627Z,861.21
2018-09-22T07:37:08.499Z,861.21
2018-09-22T07:38:08.391Z,861.23
2018-09-22T07:39:08.243Z,861.23
2018-09-22T07:40:08.118Z,861.20
2018-09-22T07:41:07.994Z,861.15
2018-09-22T07:42:07.864Z,861.18
2018-09-22T07:43:07.741Z,861.18
2018-09-22T07:44:07.610Z,861.18
2018-09-22T07:45:07.485Z,861.20
2018-09-22T07:46:07.355Z,861.18
2018-09-22T07:47:07.229Z,861.19
2018-09-22T07:48:07.103Z,861.17
2018-09-22T07:49:06.972Z,861.19
2018-09-22T07:50:06.848Z,861.22
2018-09-22T07:51:06.720Z,861.21
2018-09-22T07:52:06.594Z,861.27
2018-09-22T07:53:06.465Z,861.28
2018-09-22T07:54:06.340Z,861.28
2018-09-22T07:55:06.212Z,861.30
2018-09-22T07:56:06.086Z,861.33
2018-09-22T07:57:06.014Z,861.33
2018-09-22T07:58:05.833Z,861.36
2018-09-22T07:59:05.706Z,861.33
2018-09-22T08:00:05.579Z,861.37
2018-09-22T08:01:05.452Z,861.38
2018-09-22T08:02:05.323Z,861.38
2018-09-22T08:03:05.199Z,861.37
2018-09-22T08:04:05.070Z,861.40
2018-09-22T08:05:04.945Z,861.45
2018-09-22T08:06:04.819Z,861.50
2018-09-22T08:07:04.693Z,861.52
2018-09-22T08:08:04.568Z,861.58
2018-09-22T08:09:04.435Z,861.65
2018-09-22T08:10:04.310Z,861.65
2018-09-22T08:11:04.182Z,861.60
2018-09-22T08:12:04.057Z,861.54
2018-09-22T08:13:03.931Z,861.53
2018-09-22T08:14:03.802Z,861.50
2018-09-22T08:15:03.677Z,861.52
2018-09-22T08:16:03.548Z,861.53
2018-09-22T08:17:03.421Z,861.55
2018-09-22T08:18:03.296Z,861.52
2018-09-22T08:19:03.171Z,861.54
2018-09-22T08:20:03.042Z,861.52
2018-09-22T08:21:02.916Z,861.50
2018-09-22T08:22:02.788Z,861.49
2018-09-22T08:23:02.662Z,861.56
2018-09-22T08:24:02.536Z,861.56
2018-09-22T08:25:02.411Z,861.65
2018-09-22T08:26:02.282Z,861.60
2018-09-22T08:27:02.161Z,861.61
2018-09-22T08:28:02.029Z,861.57
2018-09-22T08:29:01.901Z,861.58
2018-09-22T08:30:01.777Z,861.58
2018-09-22T08:31:01.650Z,861.60
2018-09-22T08:32:01.570Z,861.54
2018-09-22T08:33:01.397Z,861.54
2018-09-22T08:34:01.270Z,861.55
2018-09-22T08:35:01.143Z,861.55
2018-09-22T08:36:01.132Z,861.61
2018-09-22T08:37:01.145Z,861.59
2018-09-22T08:38:00.763Z,861.60
2018-09-22T08:39:00.646Z,861.59
2018-09-22T08:40:00.509Z,861.59
2018-09-22T08:41:00.392Z,861.58
2018-09-22T08:42:00.270Z,861.56
2018-09-22T08:43:00.134Z,861.57
2018-09-22T08:44:00.080Z,861.57
2018-09-22T08:44:59.887Z,861.55
2018-09-22T08:45:59.758Z,861.53
2018-09-22T08:46:59.622Z,861.52
2018-09-22T08:47:59.500Z,861.45
2018-09-22T08:48:59.372Z,861.44
2018-09-22T08:49:59.291Z,861.45
2018-09-22T08:50:59.124Z,861.46
2018-09-22T08:51:58.993Z,861.46
2018-09-22T08:52:58.869Z,861.42
2018-09-22T08:53:58.738Z,861.36
2018-09-22T08:54:58.614Z,861.33
2018-09-22T08:55:58.496Z,861.35
2018-09-22T08:56:58.358Z,861.30
2018-09-22T08:57:58.321Z,861.28
2018-09-22T08:58:58.110Z,861.28
2018-09-22T08:59:57.980Z,861.31
2018-09-22T09:00:57.855Z,861.32
2018-09-22T09:01:57.729Z,861.25
2018-09-22T09:02:57.599Z,861.24
2018-09-22T09:03:57.476Z,861.23
2018-09-22T09:04:57.372Z,861.20
2018-09-22T09:05:57.233Z,861.21
2018-09-22T09:06:57.097Z,861.21
2018-09-22T09:07:56.970Z,861.23
2018-09-22T09:08:56.845Z,861.20
2018-09-22T09:09:56.718Z,861.21
2018-09-22T09:10:56.597Z,861.17
2018-09-22T09:11:56.471Z,861.15
2018-09-22T09:12:56.341Z,861.17
2018-09-22T09:13:56.217Z,861.18
2018-09-22T09:14:56.091Z,861.23
2018-09-22T09:15:55.964Z,861.28
2018-09-22T09:16:55.871Z,861.33
2018-09-22T09:17:55.737Z,861.35
2018-09-22T09:18:55.585Z,861.36
2018-09-22T09:19:55.459Z,861.38
2018-09-22T09:20:55.354Z,861.33
2018-09-22T09:21:55.211Z,861.32
2018-09-22T09:22:55.085Z,861.28
2018-09-22T09:23:54.960Z,861.24
2018-09-22T09:24:54.832Z,861.25
2018-09-22T09:25:54.709Z,861.29
2018-09-22T09:26:54.755Z,861.28
2018-09-22T09:27:54.457Z,861.33
2018-09-22T09:28:54.334Z,861.34
2018-09-22T09:29:54.380Z,861.33
2018-09-22T09:30:54.081Z,861.32
2018-09-22T09:31:53.956Z,861.33
2018-09-22T09:32:53.831Z,861.29
2018-09-22T09:33:53.710Z,861.30
2018-09-22T09:34:53.582Z,861.24
2018-09-22T09:35:53.461Z,861.21
2018-09-22T09:36:53.329Z,861.17
2018-09-22T09:37:53.315Z,861.21
2018-09-22T09:38:53.082Z,861.23
2018-09-22T09:39:52.954Z,861.20
2018-09-22T09:40:52.830Z,861.20
2018-09-22T09:41:52.706Z,861.18
2018-09-22T09:42:52.582Z,861.20
2018-09-22T09:43:52.455Z,861.18
2018-09-22T09:44:52.331Z,861.15
2018-09-22T09:45:52.230Z,861.14
2018-09-22T09:46:52.080Z,861.11
2018-09-22T09:47:51.961Z,861.13
2018-09-22T09:48:51.831Z,861.13
2018-09-22T09:49:51.710Z,861.12
2018-09-22T09:50:51.580Z,861.12
2018-09-22T09:51:51.455Z,861.15
2018-09-22T09:52:51.330Z,861.10
2018-09-22T09:53:51.205Z,861.12
2018-09-22T09:54:51.142Z,861.13
2018-09-22T09:55:50.956Z,861.12
2018-09-22T09:56:50.901Z,861.19
2018-09-22T09:57:50.708Z,861.17
2018-09-22T09:58:50.583Z,861.14
2018-09-22T09:59:50.545Z,861.19
2018-09-22T10:00:50.332Z,861.15
2018-09-22T10:01:50.208Z,861.07
2018-09-22T10:02:50.086Z,861.09
2018-09-22T10:03:49.958Z,861.08
2018-09-22T10:04:49.838Z,861.08
2018-09-22T10:05:49.710Z,861.08
2018-09-22T10:06:49.628Z,861.10
2018-09-22T10:07:49.470Z,861.11
2018-09-22T10:08:49.342Z,861.09
2018-09-22T10:09:49.212Z,861.09
2018-09-22T10:10:49.093Z,861.07
2018-09-22T10:11:49.009Z,861.08
2018-09-22T10:12:48.839Z,861.07
2018-09-22T10:13:48.715Z,861.05
2018-09-22T10:14:48.602Z,861.06
2018-09-22T10:15:48.466Z,861.07
2018-09-22T10:16:48.346Z,861.05
2018-09-22T10:17:48.220Z,861.07
2018-09-22T10:18:48.096Z,861.07
2018-09-22T10:19:47.973Z,861.05
2018-09-22T10:20:47.849Z,861.04
2018-09-22T10:21:47.724Z,861.03
2018-09-22T10:22:47.599Z,861.00
2018-09-22T10:23:47.478Z,861.01
2018-09-22T10:24:47.350Z,861.00
2018-09-22T10:25:47.234Z,860.97
2018-09-22T10:26:47.103Z,860.95
2018-09-22T10:27:46.979Z,860.95
2018-09-22T10:28:46.875Z,860.94
2018-09-22T10:29:46.732Z,860.87
2018-09-22T10:30:46.607Z,860.88
2018-09-22T10:31:46.481Z,860.83
2018-09-22T10:32:46.361Z,860.81
2018-09-22T10:33:46.237Z,860.77
2018-09-22T10:34:46.111Z,860.75
2018-09-22T10:35:45.987Z,860.71
2018-09-22T10:36:45.861Z,860.73
2018-09-22T10:37:45.739Z,860.68
2018-09-22T10:38:45.615Z,860.71
2018-09-22T10:39:45.499Z,860.66
2018-09-22T10:40:45.368Z,860.65
2018-09-22T10:41:45.249Z,860.63
2018-09-22T10:42:45.126Z,860.59
2018-09-22T10:43:44.997Z,860.64
2018-09-22T10:44:44.916Z,860.64
2018-09-22T10:45:44.809Z,860.67
2018-09-22T10:46:44.624Z,860.66
2018-09-22T10:47:44.538Z,860.69
2018-09-22T10:48:44.378Z,860.68
2018-09-22T10:49:44.254Z,860.72
2018-09-22T10:50:44.132Z,860.72
2018-09-22T10:51:44.008Z,860.72
2018-09-22T10:52:43.956Z,860.77
2018-09-22T10:53:43.761Z,860.80
2018-09-22T10:54:43.651Z,860.83
2018-09-22T10:55:43.513Z,860.89
2018-09-22T10:56:43.434Z,860.86
2018-09-22T10:57:43.335Z,860.86
2018-09-22T10:58:43.145Z,860.84
2018-09-22T10:59:43.022Z,860.86
2018-09-22T11:00:42.897Z,860.86
2018-09-22T11:01:42.774Z,860.88
2018-09-22T11:02:42.673Z,860.84
2018-09-22T11:03:42.530Z,860.84
2018-09-22T11:04:42.443Z,860.79
2018-09-22T11:05:42.283Z,860.76
2018-09-22T11:06:42.163Z,860.79
2018-09-22T11:07:42.169Z,860.82
2018-09-22T11:08:41.919Z,860.78
2018-09-22T11:09:41.804Z,860.71
2018-09-22T11:10:41.675Z,860.65
2018-09-22T11:11:41.761Z,860.64
2018-09-22T11:12:41.496Z,860.70
2018-09-22T11:13:41.313Z,860.69
2018-09-22T11:14:41.188Z,860.62
2018-09-22T11:15:41.068Z,860.62
2018-09-22T11:16:40.946Z,860.54
2018-09-22T11:17:40.828Z,860.53
2018-09-22T11:18:40.786Z,860.55
2018-09-22T11:19:40.584Z,860.54
2018-09-22T11:20:40.460Z,860.55
2018-09-22T11:21:40.403Z,860.52
2018-09-22T11:22:40.217Z,860.48
2018-09-22T11:23:40.098Z,860.42
2018-09-22T11:24:39.973Z,860.40
2018-09-22T11:25:39.851Z,860.37
2018-09-22T11:26:39.772Z,860.39
2018-09-22T11:27:39.637Z,860.42
2018-09-22T11:28:39.541Z,860.40
2018-09-22T11:29:39.370Z,860.37
2018-09-22T11:30:39.245Z,860.30
2018-09-22T11:31:39.170Z,860.24
2018-09-22T11:32:39.021Z,860.24
2018-09-22T11:33:38.879Z,860.27
2018-09-22T11:34:38.759Z,860.33
2018-09-22T11:35:38.637Z,860.36
2018-09-22T11:36:38.517Z,860.36
2018-09-22T11:37:38.395Z,860.30
2018-09-22T11:38:38.277Z,860.26
2018-09-22T11:39:38.154Z,860.22
2018-09-22T11:40:38.034Z,860.20
2018-09-22T11:41:37.910Z,860.31
2018-09-22T11:42:37.799Z,860.30
2018-09-22T11:43:37.671Z,860.36
2018-09-22T11:44:37.549Z,860.32
2018-09-22T11:45:37.424Z,860.29
2018-09-22T11:46:37.305Z,860.25
2018-09-22T11:47:37.183Z,860.27
2018-09-22T11:48:37.062Z,860.24
2018-09-22T11:49:36.955Z,860.20
2018-09-22T11:50:36.820Z,860.10
2018-09-22T11:51:36.699Z,860.10
2018-09-22T11:52:36.682Z,860.18
2018-09-22T11:53:36.490Z,860.21
2018-09-22T11:54:36.338Z,860.23
2018-09-22T11:55:36.216Z,860.24
2018-09-22T11:56:36.173Z,860.18
2018-09-22T11:57:35.972Z,860.11
2018-09-22T11:58:35.852Z,860.11
2018-09-22T11:59:35.734Z,860.11
2018-09-22T12:00:35.610Z,860.13
2018-09-22T12:01:35.494Z,860.11
2018-09-22T12:02:35.369Z,860.10
2018-09-22T12:03:35.251Z,860.10
2018-09-22T12:04:35.131Z,860.08
2018-09-22T12:05:35.009Z,860.08
2018-09-22T12:06:34.978Z,860.03
2018-09-22T12:07:34.767Z,860.07
2018-09-22T12:08:34.646Z,860.04
2018-09-22T12:09:34.525Z,860.07
2018-09-22T12:10:34.405Z,860.06
2018-09-22T12:11:34.285Z,859.96
2018-09-22T12:12:34.162Z,859.94
2018-09-22T12:13:34.039Z,859.93
2018-09-22T12:14:33.920Z,859.95
2018-09-22T12:15:33.807Z,859.98
2018-09-22T12:16:33.678Z,859.99
2018-09-22T12:17:33.560Z,859.97
2018-09-22T12:18:33.436Z,859.94
2018-09-22T12:19:33.316Z,859.97
2018-09-22T12:20:33.195Z,859.95
2018-09-22T12:21:33.075Z,859.94
2018-09-22T12:22:32.957Z,859.89
2018-09-22T12:23:32.835Z,859.91
2018-09-22T12:24:32.712Z,859.92
2018-09-22T12:25:32.591Z,859.93
2018-09-22T12:26:32.469Z,859.94